createdAt,value
2022-12-23T00:03:15.898Z,94547.66
2022-12-23T00:06:58.705Z,94547.84
2022-12-23T00:10:43.296Z,94539.28
2022-12-23T00:14:45.006Z,94534.28
2022-12-23T00:18:27.835Z,94511.13
2022-12-23T00:22:12.980Z,94529.66
2022-12-23T00:25:55.703Z,94522.88
2022-12-23T00:29:39.737Z,94526.91
2022-12-23T00:33:24.692Z,94507.19
2022-12-23T00:37:07.322Z,94508.22
2022-12-23T00:41:09.619Z,94498.81
2022-12-23T00:45:13.658Z,94479.88
2022-12-23T00:49:14.321Z,94483.94
2022-12-23T00:52:57.080Z,94463.41
2022-12-23T00:56:39.784Z,94432.44
2022-12-23T01:00:44.329Z,94450.59
2022-12-23T01:04:44.521Z,94460.25
2022-12-23T01:08:27.403Z,94444.34
2022-12-23T01:12:10.202Z,94446.97
2022-12-23T01:15:54.281Z,94436.50
2022-12-23T01:19:37.308Z,94442.91
2022-12-23T01:23:22.811Z,94431.16
2022-12-23T01:27:05.461Z,94436.41
2022-12-23T01:30:48.097Z,94439.19
2022-12-23T01:34:36.789Z,94448.03
2022-12-23T01:38:20.272Z,94443.59
2022-12-23T01:42:20.627Z,94436.69
2022-12-23T01:46:03.629Z,94428.44
2022-12-23T01:49:48.214Z,94442.34
2022-12-23T01:53:32.675Z,94427.44
2022-12-23T01:57:15.414Z,94440.09
2022-12-23T02:01:15.494Z,94447.09
2022-12-23T02:04:59.845Z,94439.09
2022-12-23T02:08:59.819Z,94449.56
2022-12-23T02:12:48.550Z,94444.09
2022-12-23T02:16:33.728Z,94443.47
2022-12-23T02:20:36.839Z,94454.00
2022-12-23T02:24:55.628Z,94454.34
2022-12-23T02:28:54.563Z,94452.78
2022-12-23T02:32:49.626Z,94462.06
2022-12-23T02:36:39.432Z,94458.97
2022-12-23T02:40:27.594Z,94463.38
2022-12-23T02:44:21.577Z,94461.94
2022-12-23T02:48:10.116Z,94467.13
2022-12-23T02:51:55.747Z,94477.16
2022-12-23T02:55:40.761Z,94461.38
2022-12-23T02:59:26.908Z,94483.09
2022-12-23T03:03:11.338Z,94494.28
2022-12-23T03:06:55.795Z,94469.28
2022-12-23T03:10:49.062Z,94471.63
2022-12-23T03:14:41.234Z,94469.16
2022-12-23T03:18:31.595Z,94468.75
2022-12-23T03:22:21.088Z,94481.25
2022-12-23T03:26:06.426Z,94473.13
2022-12-23T03:29:55.396Z,94482.75
2022-12-23T03:33:42.444Z,94482.31
2022-12-23T03:37:26.814Z,94471.78
2022-12-23T03:41:12.383Z,94482.06
2022-12-23T03:45:36.367Z,94483.41
2022-12-23T03:49:02.658Z,94503.16
2022-12-23T03:52:50.988Z,94478.91
2022-12-23T03:56:36.585Z,94498.44
2022-12-23T04:00:19.445Z,94491.72
2022-12-23T04:04:06.751Z,94493.91
2022-12-23T04:07:53.697Z,94502.97
2022-12-23T04:11:36.749Z,94508.59
2022-12-23T04:15:22.858Z,94509.03
2022-12-23T04:19:07.040Z,94511.00
2022-12-23T04:22:50.947Z,94511.06
2022-12-23T04:26:33.662Z,94497.72
2022-12-23T04:30:16.606Z,94511.84
2022-12-23T04:33:59.257Z,94537.59
2022-12-23T04:37:43.408Z,94516.53
2022-12-23T04:41:26.163Z,94534.78
2022-12-23T04:45:10.024Z,94519.59
2022-12-23T04:48:52.698Z,94512.16
2022-12-23T04:52:35.360Z,94522.22
2022-12-23T04:56:19.480Z,94538.72
2022-12-23T05:00:02.117Z,94535.50
2022-12-23T05:03:44.968Z,94545.41
2022-12-23T05:07:27.636Z,94528.97
2022-12-23T05:11:10.344Z,94541.09
2022-12-23T05:14:54.389Z,94523.66
2022-12-23T05:18:37.079Z,94538.59
2022-12-23T05:22:19.824Z,94546.56
2022-12-23T05:26:02.671Z,94534.63
2022-12-23T05:29:45.345Z,94539.38
2022-12-23T05:33:30.111Z,94561.63
2022-12-23T05:37:12.835Z,94558.97
2022-12-23T05:40:55.659Z,94544.41
2022-12-23T05:44:38.294Z,94541.13
2022-12-23T05:48:21.058Z,94560.16
2022-12-23T05:52:05.312Z,94558.56
2022-12-23T05:55:48.419Z,94560.16
2022-12-23T05:59:31.952Z,94593.44
2022-12-23T06:03:14.953Z,94573.00
2022-12-23T06:06:58.219Z,94567.72
2022-12-23T06:10:42.486Z,94558.59
2022-12-23T06:14:28.751Z,94567.94
2022-12-23T06:18:11.883Z,94582.47
2022-12-23T06:21:54.560Z,94581.22
2022-12-23T06:25:37.276Z,94593.34
2022-12-23T06:29:21.452Z,94600.56
2022-12-23T06:33:04.276Z,94593.03
2022-12-23T06:36:47.074Z,94603.56
2022-12-23T06:40:30.042Z,94614.69
2022-12-23T06:44:12.682Z,94622.13
2022-12-23T06:47:57.943Z,94620.66
2022-12-23T06:51:40.724Z,94617.38
2022-12-23T06:55:23.458Z,94634.75
2022-12-23T06:59:06.180Z,94643.81
2022-12-23T07:02:49.268Z,94638.94
2022-12-23T07:06:33.459Z,94650.47
2022-12-23T07:10:16.246Z,94651.56
2022-12-23T07:13:59.507Z,94657.19
2022-12-23T07:17:42.225Z,94665.31
2022-12-23T07:21:28.591Z,94671.38
2022-12-23T07:25:13.809Z,94676.19
2022-12-23T07:28:56.502Z,94669.19
2022-12-23T07:32:39.231Z,94675.47
2022-12-23T07:36:21.908Z,94676.25
2022-12-23T07:40:08.517Z,94679.41
2022-12-23T07:43:52.970Z,94683.94
2022-12-23T07:47:35.717Z,94685.16
2022-12-23T07:51:18.428Z,94691.31
2022-12-23T07:55:01.335Z,94685.66
2022-12-23T07:58:44.045Z,94695.16
2022-12-23T08:02:28.216Z,94689.69
2022-12-23T08:06:13.356Z,94691.09
2022-12-23T08:09:56.080Z,94696.78
2022-12-23T08:13:41.104Z,94704.97
2022-12-23T08:17:29.058Z,94698.25
2022-12-23T08:21:14.724Z,94703.94
2022-12-23T08:24:57.493Z,94700.06
2022-12-23T08:28:41.587Z,94702.41
2022-12-23T08:32:28.311Z,94704.66
2022-12-23T08:36:19.195Z,94695.84
2022-12-23T08:40:05.685Z,94688.53
2022-12-23T08:43:48.580Z,94692.63
2022-12-23T08:47:32.664Z,94692.81
2022-12-23T08:51:17.055Z,94692.03
2022-12-23T08:54:59.957Z,94686.44
2022-12-23T08:58:44.116Z,94683.03
2022-12-23T09:02:26.958Z,94720.38
2022-12-23T09:06:13.394Z,94742.38
2022-12-23T09:09:56.137Z,94742.09
2022-12-23T09:13:39.145Z,94746.16
2022-12-23T09:17:21.809Z,94744.13
2022-12-23T09:21:06.230Z,94736.09
2022-12-23T09:24:50.357Z,94721.47
2022-12-23T09:28:33.585Z,94727.13
2022-12-23T09:32:16.344Z,94716.06
2022-12-23T09:36:00.881Z,94727.41
2022-12-23T09:39:43.622Z,94722.28
2022-12-23T09:43:33.622Z,94727.31
2022-12-23T09:47:18.574Z,94713.94
2022-12-23T09:51:01.870Z,94702.59
2022-12-23T09:54:48.712Z,94722.31
2022-12-23T09:58:36.485Z,94713.41
2022-12-23T10:02:26.316Z,94699.94
2022-12-23T10:06:14.326Z,94698.31
2022-12-23T10:09:57.830Z,94689.03
2022-12-23T10:13:44.692Z,94702.09
2022-12-23T10:17:30.569Z,94695.59
2022-12-23T10:21:16.467Z,94701.44
2022-12-23T10:25:00.277Z,94697.91
2022-12-23T10:28:44.291Z,94691.97
2022-12-23T10:32:32.578Z,94682.22
2022-12-23T10:36:21.083Z,94679.69
2022-12-23T10:40:11.358Z,94687.59
2022-12-23T10:44:19.314Z,94685.09
2022-12-23T10:48:14.216Z,94686.00
2022-12-23T10:51:59.171Z,94680.47
2022-12-23T10:55:41.975Z,94685.72
2022-12-23T10:59:28.526Z,94682.38
2022-12-23T11:03:18.113Z,94676.28
2022-12-23T11:07:34.512Z,94668.97
2022-12-23T11:11:05.041Z,94667.84
2022-12-23T11:14:54.285Z,94660.75
2022-12-23T11:18:41.872Z,94669.59
2022-12-23T11:22:26.150Z,94669.13
2022-12-23T11:26:13.327Z,94652.09
2022-12-23T11:29:57.357Z,94659.78
2022-12-23T11:33:42.333Z,94649.47
2022-12-23T11:37:29.369Z,94647.41
2022-12-23T11:41:12.020Z,94639.81
2022-12-23T11:44:58.176Z,94636.81
2022-12-23T11:48:40.831Z,94637.63
2022-12-23T11:52:24.725Z,94637.16
2022-12-23T11:56:09.545Z,94621.25
2022-12-23T11:59:59.207Z,94635.00
2022-12-23T12:03:47.637Z,94628.13
2022-12-23T12:07:31.236Z,94619.47
2022-12-23T12:11:16.087Z,94624.72
2022-12-23T12:15:00.941Z,94621.63
2022-12-23T12:18:46.253Z,94614.41
2022-12-23T12:22:37.053Z,94614.88
2022-12-23T12:26:24.314Z,94613.72
2022-12-23T12:30:14.900Z,94601.72
2022-12-23T12:34:02.141Z,94596.31
2022-12-23T12:37:48.883Z,94602.28
2022-12-23T12:41:35.939Z,94592.16
2022-12-23T12:45:22.755Z,94589.19
2022-12-23T12:49:15.096Z,94583.47
2022-12-23T12:53:00.542Z,94595.81
2022-12-23T12:56:47.631Z,94601.19
2022-12-23T13:00:42.903Z,94590.16
2022-12-23T13:04:49.415Z,94573.56
2022-12-23T13:08:44.526Z,94589.00
2022-12-23T13:12:38.874Z,94573.63
2022-12-23T13:16:29.862Z,94561.97
2022-12-23T13:20:17.409Z,94558.63
2022-12-23T13:24:07.653Z,94555.41
2022-12-23T13:27:55.717Z,94551.63
2022-12-23T13:31:47.805Z,94551.47
2022-12-23T13:35:38.702Z,94548.72
2022-12-23T13:39:30.645Z,94535.78
2022-12-23T13:43:16.353Z,94545.63
2022-12-23T13:47:04.325Z,94543.47
2022-12-23T13:50:51.173Z,94549.84
2022-12-23T13:54:41.894Z,94546.41
2022-12-23T13:58:26.794Z,94542.75
2022-12-23T14:02:44.632Z,94536.69
2022-12-23T14:06:43.897Z,94540.78
2022-12-23T14:10:26.720Z,94523.59
2022-12-23T14:14:19.735Z,94533.97
2022-12-23T14:18:16.013Z,94524.28
2022-12-23T14:22:08.564Z,94527.47
2022-12-23T14:25:59.953Z,94528.06
2022-12-23T14:29:51.547Z,94525.44
2022-12-23T14:33:38.051Z,94513.25
2022-12-23T14:37:36.479Z,94502.84
2022-12-23T14:41:23.747Z,94508.16
2022-12-23T14:45:29.804Z,94510.56
2022-12-23T14:49:38.915Z,94493.19
2022-12-23T14:53:27.541Z,94492.31
2022-12-23T14:57:18.785Z,94490.56
2022-12-23T15:01:04.262Z,94493.28
2022-12-23T15:04:50.629Z,94491.88
2022-12-23T15:08:35.247Z,94494.53
2022-12-23T15:12:22.574Z,94493.50
2022-12-23T15:16:05.503Z,94490.72
2022-12-23T15:19:49.652Z,94488.81
2022-12-23T15:23:33.306Z,94498.97
2022-12-23T15:27:27.395Z,94499.69
2022-12-23T15:31:23.268Z,94495.31
2022-12-23T15:35:09.002Z,94496.13
2022-12-23T15:38:51.732Z,94505.16
2022-12-23T15:42:35.588Z,94501.25
2022-12-23T15:46:25.015Z,94498.09
2022-12-23T15:50:17.053Z,94504.16
2022-12-23T15:54:02.494Z,94495.69
2022-12-23T15:57:50.447Z,94491.75
2022-12-23T16:01:38.108Z,94493.75
2022-12-23T16:05:27.914Z,94491.59
2022-12-23T16:09:26.593Z,94489.13
2022-12-23T16:13:17.458Z,94503.41
2022-12-23T16:17:01.602Z,94475.53
2022-12-23T16:20:46.948Z,94495.09
2022-12-23T16:24:31.829Z,94486.63
2022-12-23T16:28:18.039Z,94473.47
2022-12-23T16:32:02.464Z,94473.34
2022-12-23T16:35:46.659Z,94475.31
2022-12-23T16:39:29.493Z,94495.44
2022-12-23T16:43:12.459Z,94491.34
2022-12-23T16:46:55.126Z,94493.97
2022-12-23T16:50:38.010Z,94496.94
2022-12-23T16:54:22.198Z,94507.47
2022-12-23T16:58:06.621Z,94496.94
2022-12-23T17:01:50.535Z,94492.28
2022-12-23T17:05:33.370Z,94497.66
2022-12-23T17:09:16.083Z,94520.19
2022-12-23T17:13:00.156Z,94506.81
2022-12-23T17:16:42.904Z,94504.31
2022-12-23T17:20:25.778Z,94510.84
2022-12-23T17:24:11.898Z,94518.06
2022-12-23T17:27:55.644Z,94533.72
2022-12-23T17:31:39.937Z,94528.56
2022-12-23T17:35:22.619Z,94536.72
2022-12-23T17:39:05.561Z,94525.41
2022-12-23T17:42:52.276Z,94531.34
2022-12-23T17:46:35.967Z,94532.50
2022-12-23T17:50:23.354Z,94525.94
2022-12-23T17:54:06.491Z,94532.22
2022-12-23T17:57:49.529Z,94507.44
2022-12-23T18:01:32.893Z,94531.78
2022-12-23T18:05:25.135Z,94528.03
2022-12-23T18:09:07.899Z,94513.03
2022-12-23T18:12:52.055Z,94505.72
2022-12-23T18:16:34.848Z,94525.03
2022-12-23T18:20:18.824Z,94525.16
2022-12-23T18:24:02.982Z,94542.25
2022-12-23T18:27:45.942Z,94511.00
2022-12-23T18:31:29.006Z,94516.69
2022-12-23T18:35:28.902Z,94502.88
2022-12-23T18:39:12.928Z,94519.47
2022-12-23T18:42:56.026Z,94512.59
2022-12-23T18:46:38.773Z,94500.03
2022-12-23T18:50:21.801Z,94500.41
2022-12-23T18:54:04.534Z,94497.06
2022-12-23T18:57:49.381Z,94488.50
2022-12-23T19:01:32.202Z,94488.50
2022-12-23T19:05:17.677Z,94496.97
2022-12-23T19:09:00.349Z,94495.25
2022-12-23T19:12:43.047Z,94488.84
2022-12-23T19:16:27.161Z,94492.63
2022-12-23T19:20:11.655Z,94507.16
2022-12-23T19:23:54.318Z,94522.50
2022-12-23T19:27:38.877Z,94496.88
2022-12-23T19:31:23.094Z,94492.53
2022-12-23T19:35:08.231Z,94503.28
2022-12-23T19:38:51.180Z,94492.19
2022-12-23T19:42:34.597Z,94487.25
2022-12-23T19:46:17.794Z,94498.59
2022-12-23T19:50:00.650Z,94504.53
2022-12-23T19:53:46.111Z,94516.56
2022-12-23T19:57:28.848Z,94508.56
2022-12-23T20:01:14.266Z,94550.69
2022-12-23T20:04:56.971Z,94534.75
2022-12-23T20:08:40.540Z,94530.41
2022-12-23T20:12:26.365Z,94546.22
2022-12-23T20:16:09.678Z,94547.59
2022-12-23T20:19:52.741Z,94545.63
2022-12-23T20:23:35.523Z,94544.50
2022-12-23T20:27:22.631Z,94602.00
2022-12-23T20:31:16.850Z,94542.66
2022-12-23T20:34:59.662Z,94539.59
2022-12-23T20:38:44.427Z,94589.41
2022-12-23T20:42:28.006Z,94562.63
2022-12-23T20:46:14.337Z,94580.22
2022-12-23T20:49:57.539Z,94583.97
2022-12-23T20:53:40.648Z,94593.59
2022-12-23T20:57:24.529Z,94576.41
2022-12-23T21:01:12.754Z,94589.56
2022-12-23T21:04:55.421Z,94615.16
2022-12-23T21:08:38.999Z,94577.53
2022-12-23T21:12:21.698Z,94584.03
2022-12-23T21:16:06.205Z,94577.53
2022-12-23T21:19:50.591Z,94648.53
2022-12-23T21:23:33.491Z,94653.09
2022-12-23T21:27:16.137Z,94671.91
2022-12-23T21:30:58.806Z,94663.06
2022-12-23T21:34:41.653Z,94691.22
2022-12-23T21:38:26.101Z,94664.31
2022-12-23T21:42:08.769Z,94629.66
2022-12-23T21:45:56.916Z,94625.63
2022-12-23T21:49:42.180Z,94684.53
2022-12-23T21:53:26.242Z,94690.25
2022-12-23T21:57:08.933Z,94690.44
2022-12-23T22:00:51.631Z,94682.50
2022-12-23T22:04:34.322Z,94684.44
2022-12-23T22:08:17.060Z,94685.59
2022-12-23T22:12:01.787Z,94695.13
2022-12-23T22:15:44.741Z,94705.03
2022-12-23T22:19:27.939Z,94687.06
2022-12-23T22:23:10.774Z,94712.50
2022-12-23T22:26:53.488Z,94703.25
2022-12-23T22:30:37.571Z,94696.34
2022-12-23T22:34:21.842Z,94710.22
2022-12-23T22:38:04.536Z,94732.63
2022-12-23T22:41:47.274Z,94704.53
2022-12-23T22:45:29.945Z,94706.13
2022-12-23T22:49:15.159Z,94695.25
2022-12-23T22:52:57.821Z,94710.44
2022-12-23T22:56:40.676Z,94721.59
2022-12-23T23:00:26.320Z,94704.34
2022-12-23T23:04:10.439Z,94721.72
2022-12-23T23:07:57.364Z,94748.72
2022-12-23T23:11:40.125Z,94737.09
2022-12-23T23:15:22.903Z,94730.09
2022-12-23T23:19:06.516Z,94707.28
2022-12-23T23:22:49.221Z,94720.63
2022-12-23T23:26:33.460Z,94730.88
2022-12-23T23:30:16.311Z,94738.34
2022-12-23T23:33:59.110Z,94746.81
2022-12-23T23:37:42.150Z,94745.38
2022-12-23T23:41:24.899Z,94739.31
2022-12-23T23:45:09.895Z,94736.66
2022-12-23T23:48:52.755Z,94755.72
2022-12-23T23:52:35.459Z,94742.56
2022-12-23T23:56:24.821Z,94763.16
